createdAt,value
2018-09-01T00:00:32.107Z,73.75
2018-09-01T00:03:00.838Z,74.71
2018-09-01T00:05:29.550Z,75.44
2018-09-01T00:07:58.226Z,73.05
2018-09-01T00:10:26.846Z,72.63
2018-09-01T00:13:02.182Z,73.69
2018-09-01T00:15:30.810Z,72.09
2018-09-01T00:17:59.561Z,72.46
2018-09-01T00:20:28.150Z,72.37
2018-09-01T00:22:56.790Z,72.52
2018-09-01T00:25:25.437Z,72.85
2018-09-01T00:27:54.053Z,72.62
2018-09-01T00:30:22.703Z,72.35
2018-09-01T00:32:51.303Z,72.33
2018-09-01T00:35:19.922Z,73.28
2018-09-01T00:37:53.697Z,74.09
2018-09-01T00:40:26.814Z,74.61
2018-09-01T00:42:57.319Z,75.46
2018-09-01T00:45:25.923Z,75.33
2018-09-01T00:47:54.580Z,73.68
2018-09-01T00:50:23.271Z,73.25
2018-09-01T00:52:51.940Z,73.69
2018-09-01T00:55:25.790Z,74.10
2018-09-01T00:57:54.646Z,73.28
2018-09-01T01:00:23.534Z,73.57
2018-09-01T01:02:52.275Z,74.10
2018-09-01T01:05:21.323Z,73.87
2018-09-01T01:07:49.926Z,73.58
2018-09-01T01:10:18.564Z,74.40
2018-09-01T01:12:48.122Z,74.27
2018-09-01T01:15:16.921Z,74.67
2018-09-01T01:17:45.527Z,74.22
2018-09-01T01:20:14.195Z,74.10
2018-09-01T01:22:42.844Z,74.23
2018-09-01T01:25:11.462Z,74.79
2018-09-01T01:27:40.058Z,75.40
2018-09-01T01:30:08.777Z,79.80
2018-09-01T01:32:37.660Z,80.37
2018-09-01T01:35:06.469Z,80.46
2018-09-01T01:37:36.183Z,80.11
2018-09-01T01:40:05.570Z,81.34
2018-09-01T01:42:35.484Z,81.99
2018-09-01T01:45:04.302Z,83.08
2018-09-01T01:47:36.727Z,83.22
2018-09-01T01:50:06.392Z,82.85
2018-09-01T01:52:35.050Z,82.48
2018-09-01T01:55:03.752Z,82.09
2018-09-01T01:57:32.426Z,81.43
2018-09-01T02:00:01.066Z,80.46
2018-09-01T02:02:29.711Z,79.09
2018-09-01T02:04:58.318Z,80.21
2018-09-01T02:07:26.948Z,79.58
2018-09-01T02:09:55.572Z,80.69
2018-09-01T02:12:24.223Z,80.74
2018-09-01T02:14:52.837Z,80.68
2018-09-01T02:17:21.461Z,81.88
2018-09-01T02:19:50.079Z,81.75
2018-09-01T02:22:18.697Z,82.57
2018-09-01T02:24:47.343Z,82.59
2018-09-01T02:27:15.965Z,83.45
2018-09-01T02:29:44.677Z,83.24
2018-09-01T02:32:13.356Z,84.34
2018-09-01T02:34:41.988Z,84.08
2018-09-01T02:37:10.641Z,84.43
2018-09-01T02:39:39.301Z,84.62
2018-09-01T02:42:08.036Z,85.01
2018-09-01T02:47:15.349Z,86.20
2018-09-01T02:49:44.003Z,86.07
2018-09-01T02:52:12.759Z,85.39
2018-09-01T02:54:41.394Z,84.34
2018-09-01T02:57:10.135Z,84.60
2018-09-01T02:59:38.851Z,85.98
2018-09-01T03:02:07.642Z,87.42
2018-09-01T03:04:36.275Z,88.14
2018-09-01T03:07:04.989Z,89.06
2018-09-01T03:09:33.602Z,89.25
2018-09-01T03:12:02.239Z,88.87
2018-09-01T03:14:30.843Z,88.85
2018-09-01T03:16:59.497Z,88.39
2018-09-01T03:19:28.069Z,90.10
2018-09-01T03:21:56.690Z,90.80
2018-09-01T03:24:25.485Z,91.58
2018-09-01T03:26:54.090Z,91.13
2018-09-01T03:29:22.715Z,90.95
2018-09-01T03:31:51.358Z,90.55
2018-09-01T03:34:20.004Z,90.20
2018-09-01T03:36:48.629Z,91.17
2018-09-01T03:39:17.219Z,91.66
2018-09-01T03:41:45.895Z,92.23
2018-09-01T03:44:14.595Z,92.87
2018-09-01T03:46:43.263Z,92.41
2018-09-01T03:49:12.041Z,92.87
2018-09-01T03:51:40.647Z,92.73
2018-09-01T03:54:09.359Z,92.82
2018-09-01T03:56:38.008Z,92.90
2018-09-01T03:59:06.663Z,93.03
2018-09-01T04:01:35.286Z,92.76
2018-09-01T04:04:03.903Z,92.63
2018-09-01T04:06:32.487Z,93.69
2018-09-01T04:09:01.166Z,94.89
2018-09-01T04:11:29.793Z,95.49
2018-09-01T04:13:58.411Z,95.54
2018-09-01T04:16:27.012Z,95.38
2018-09-01T04:18:55.608Z,94.60
2018-09-01T04:21:24.288Z,94.15
2018-09-01T04:23:52.929Z,94.29
2018-09-01T04:26:21.549Z,93.97
2018-09-01T04:28:50.158Z,93.41
2018-09-01T04:31:18.823Z,93.15
2018-09-01T04:33:47.420Z,92.98
2018-09-01T04:36:16.173Z,92.98
2018-09-01T04:38:44.774Z,92.42
2018-09-01T04:41:13.549Z,92.11
2018-09-01T04:43:42.195Z,92.11
2018-09-01T04:46:10.802Z,91.69
2018-09-01T04:48:39.417Z,92.13
2018-09-01T04:51:08.067Z,92.90
2018-09-01T04:53:36.676Z,92.60
2018-09-01T04:56:05.276Z,93.08
2018-09-01T04:58:33.907Z,93.34
2018-09-01T05:01:02.622Z,93.24
2018-09-01T05:03:31.132Z,93.56
2018-09-01T05:06:00.635Z,93.31
2018-09-01T05:08:29.245Z,92.79
2018-09-01T05:10:57.890Z,92.92
2018-09-01T05:13:26.545Z,93.39
2018-09-01T05:15:55.169Z,94.20
2018-09-01T05:18:23.816Z,94.53
2018-09-01T05:20:52.498Z,95.25
2018-09-01T05:23:21.246Z,95.47
2018-09-01T05:25:49.957Z,95.21
2018-09-01T05:28:18.583Z,94.22
2018-09-01T05:30:47.219Z,94.08
2018-09-01T05:33:15.969Z,94.00
2018-09-01T05:35:44.592Z,93.11
2018-09-01T05:38:13.250Z,92.88
2018-09-01T05:40:41.926Z,93.14
2018-09-01T05:43:10.596Z,94.13
2018-09-01T05:45:39.222Z,93.90
2018-09-01T05:48:07.912Z,94.43
2018-09-01T05:50:36.601Z,95.20
2018-09-01T05:53:05.261Z,96.02
2018-09-01T05:55:33.883Z,96.38
2018-09-01T05:58:02.521Z,96.15
2018-09-01T06:00:35.376Z,96.64
2018-09-01T06:03:04.074Z,97.44
2018-09-01T06:05:32.685Z,97.34
2018-09-01T06:08:01.376Z,98.06
2018-09-01T06:10:30.025Z,97.77
2018-09-01T06:12:59.146Z,98.23
2018-09-01T06:15:28.309Z,98.25
2018-09-01T06:17:58.247Z,98.45
2018-09-01T06:20:27.042Z,98.28
2018-09-01T06:22:55.705Z,98.32
2018-09-01T06:25:24.552Z,98.66
2018-09-01T06:27:54.823Z,98.96
2018-09-01T06:30:27.338Z,99.00
2018-09-01T06:32:56.288Z,99.24
2018-09-01T06:35:25.027Z,99.29
2018-09-01T06:37:53.725Z,99.51
2018-09-01T06:40:22.432Z,98.77
2018-09-01T06:42:51.062Z,98.67
2018-09-01T06:45:19.670Z,98.78
2018-09-01T06:47:48.297Z,99.01
2018-09-01T06:50:16.995Z,99.44
2018-09-01T06:52:45.730Z,100.00
2018-09-01T06:55:14.472Z,100.00
2018-09-01T06:57:43.129Z,100.00
2018-09-01T07:00:11.912Z,100.00
2018-09-01T07:02:40.552Z,100.00
2018-09-01T07:05:09.314Z,100.00
2018-09-01T07:07:37.965Z,100.00
2018-09-01T07:10:06.789Z,100.00
2018-09-01T07:12:35.414Z,100.00
2018-09-01T07:15:04.186Z,100.00
2018-09-01T07:17:32.841Z,100.00
2018-09-01T07:20:01.579Z,100.00
2018-09-01T07:22:30.235Z,100.00
2018-09-01T07:24:59.023Z,100.00
2018-09-01T07:27:27.726Z,100.00
2018-09-01T07:29:56.457Z,100.00
2018-09-01T07:32:25.152Z,100.00
2018-09-01T07:34:53.933Z,100.00
2018-09-01T07:37:22.698Z,100.00
2018-09-01T07:39:51.373Z,100.00
2018-09-01T07:42:20.002Z,100.00
2018-09-01T07:44:48.725Z,100.00
2018-09-01T07:47:17.358Z,100.00
2018-09-01T07:49:46.149Z,100.00
2018-09-01T07:52:14.804Z,100.00
2018-09-01T07:54:43.597Z,100.00
2018-09-01T07:57:12.267Z,100.00
2018-09-01T07:59:41.095Z,100.00
2018-09-01T08:02:09.783Z,100.00
2018-09-01T08:04:38.629Z,100.00
2018-09-01T08:07:07.387Z,100.00
2018-09-01T08:09:36.038Z,100.00
2018-09-01T08:12:04.653Z,99.95
2018-09-01T08:14:33.346Z,100.00
2018-09-01T08:17:01.943Z,99.14
2018-09-01T08:19:30.711Z,98.46
2018-09-01T08:21:59.388Z,97.94
2018-09-01T08:24:28.052Z,97.61
2018-09-01T08:26:56.670Z,95.81
2018-09-01T08:29:25.333Z,94.89
2018-09-01T08:31:54.054Z,95.02
2018-09-01T08:34:22.734Z,95.15
2018-09-01T08:36:51.362Z,94.49
2018-09-01T08:39:19.947Z,94.53
2018-09-01T08:41:48.587Z,94.37
2018-09-01T08:44:17.194Z,94.02
2018-09-01T08:46:45.807Z,92.77
2018-09-01T08:49:14.457Z,92.75
2018-09-01T08:51:43.068Z,90.07
2018-09-01T08:54:11.794Z,87.21
2018-09-01T08:56:40.476Z,84.61
2018-09-01T08:59:09.081Z,83.06
2018-09-01T09:01:38.403Z,83.41
2018-09-01T09:04:07.073Z,85.02
2018-09-01T09:06:35.767Z,84.74
2018-09-01T09:09:05.486Z,82.32
2018-09-01T09:11:34.416Z,82.57
2018-09-01T09:14:03.084Z,82.58
2018-09-01T09:16:31.770Z,82.81
2018-09-01T09:19:00.411Z,80.85
2018-09-01T09:21:29.067Z,82.21
2018-09-01T09:23:57.704Z,81.91
2018-09-01T09:26:26.488Z,81.45
2018-09-01T09:28:55.123Z,80.98
2018-09-01T09:31:23.779Z,79.60
2018-09-01T09:33:52.443Z,79.85
2018-09-01T09:36:21.107Z,79.21
2018-09-01T09:38:49.722Z,79.65
2018-09-01T09:41:18.386Z,81.58
2018-09-01T09:43:47.039Z,82.58
2018-09-01T09:46:16.590Z,81.25
2018-09-01T09:48:45.230Z,83.15
2018-09-01T09:51:13.848Z,83.15
2018-09-01T09:53:43.222Z,82.86
2018-09-01T09:56:12.015Z,82.54
2018-09-01T09:58:40.830Z,82.97
2018-09-01T10:01:14.658Z,83.13
2018-09-01T10:03:43.310Z,82.28
2018-09-01T10:06:12.034Z,81.94
2018-09-01T10:08:40.687Z,81.19
2018-09-01T10:11:09.391Z,80.78
2018-09-01T10:13:38.037Z,80.41
2018-09-01T10:16:06.743Z,80.60
2018-09-01T10:18:35.431Z,79.67
2018-09-01T10:21:04.241Z,76.27
2018-09-01T10:23:32.869Z,74.68
2018-09-01T10:26:01.529Z,74.10
2018-09-01T10:28:30.151Z,73.24
2018-09-01T10:30:58.832Z,71.30
2018-09-01T10:33:27.478Z,70.33
2018-09-01T10:35:56.242Z,69.64
2018-09-01T10:38:25.035Z,68.19
2018-09-01T10:40:53.725Z,67.89
2018-09-01T10:43:22.375Z,67.42
2018-09-01T10:45:51.714Z,68.04
2018-09-01T10:48:20.378Z,68.17
2018-09-01T10:50:49.039Z,68.18
2018-09-01T10:53:17.830Z,69.26
2018-09-01T10:55:46.878Z,68.89
2018-09-01T10:58:15.514Z,69.18
2018-09-01T11:00:44.174Z,68.44
2018-09-01T11:03:12.796Z,67.16
2018-09-01T11:05:41.526Z,68.13
2018-09-01T11:08:10.125Z,67.68
2018-09-01T11:10:38.762Z,67.16
2018-09-01T11:13:07.417Z,66.07
2018-09-01T11:15:36.067Z,65.61
2018-09-01T11:18:04.726Z,66.36
2018-09-01T11:20:33.385Z,67.45
2018-09-01T11:23:02.027Z,67.36
2018-09-01T11:25:30.647Z,67.42
2018-09-01T11:27:59.347Z,67.96
2018-09-01T11:30:28.065Z,67.03
2018-09-01T11:32:56.795Z,67.54
2018-09-01T11:35:25.474Z,67.17
2018-09-01T11:37:54.110Z,66.92
2018-09-01T11:40:22.809Z,67.88
2018-09-01T11:42:51.542Z,68.67
2018-09-01T11:45:20.042Z,68.67
2018-09-01T11:47:48.697Z,69.52
2018-09-01T11:50:17.338Z,69.93
2018-09-01T11:52:45.962Z,68.59
2018-09-01T11:55:14.597Z,68.03
2018-09-01T11:57:43.181Z,67.67
2018-09-01T12:00:11.951Z,68.58
2018-09-01T12:02:40.584Z,68.73
2018-09-01T12:05:09.180Z,69.17
2018-09-01T12:07:37.867Z,68.99
2018-09-01T12:10:07.281Z,68.63
2018-09-01T12:12:36.365Z,68.80
2018-09-01T12:15:05.164Z,69.43
2018-09-01T12:17:33.788Z,69.39
2018-09-01T12:20:02.400Z,69.27
2018-09-01T12:22:31.095Z,68.60
2018-09-01T12:24:59.722Z,69.63
2018-09-01T12:27:28.363Z,69.77
2018-09-01T12:29:57.107Z,70.64
2018-09-01T12:32:26.540Z,70.92
2018-09-01T12:34:55.158Z,72.00
2018-09-01T12:37:23.843Z,72.96
2018-09-01T12:39:52.489Z,74.92
2018-09-01T12:42:21.109Z,75.81
2018-09-01T12:44:49.733Z,81.25
2018-09-01T12:47:18.331Z,83.74
2018-09-01T12:49:46.952Z,87.93
2018-09-01T12:52:15.570Z,91.32
2018-09-01T12:54:44.240Z,92.63
2018-09-01T12:57:12.884Z,93.85
2018-09-01T12:59:41.510Z,93.99
2018-09-01T13:02:10.211Z,95.28
2018-09-01T13:04:38.895Z,95.28
2018-09-01T13:07:07.596Z,95.85
2018-09-01T13:09:36.244Z,95.49
2018-09-01T13:12:04.932Z,94.45
2018-09-01T13:14:33.548Z,95.12
2018-09-01T13:17:02.206Z,95.45
2018-09-01T13:19:30.820Z,95.02
2018-09-01T13:21:59.431Z,95.61
2018-09-01T13:24:28.108Z,96.40
2018-09-01T13:26:56.783Z,97.01
2018-09-01T13:29:25.401Z,97.16
2018-09-01T13:31:54.154Z,96.38
2018-09-01T13:34:22.922Z,95.01
2018-09-01T13:36:51.541Z,94.97
2018-09-01T13:39:20.156Z,93.61
2018-09-01T13:41:48.959Z,93.06
2018-09-01T13:44:17.763Z,91.79
2018-09-01T13:46:46.462Z,92.28
2018-09-01T13:49:15.167Z,90.75
2018-09-01T13:51:43.826Z,89.96
2018-09-01T13:54:12.530Z,88.36
2018-09-01T13:56:41.131Z,88.14
2018-09-01T13:59:09.788Z,87.77
2018-09-01T14:01:38.414Z,87.31
2018-09-01T14:04:07.055Z,85.67
2018-09-01T14:06:35.654Z,86.38
2018-09-01T14:09:05.034Z,86.31
2018-09-01T14:11:33.714Z,87.75
2018-09-01T14:14:02.387Z,86.86
2018-09-01T14:16:31.092Z,86.33
2018-09-01T14:18:59.741Z,87.62
2018-09-01T14:21:28.383Z,87.14
2018-09-01T14:23:57.021Z,88.42
2018-09-01T14:26:25.641Z,89.40
2018-09-01T14:28:54.371Z,88.58
2018-09-01T14:31:22.997Z,88.41
2018-09-01T14:33:51.661Z,89.50
2018-09-01T14:36:20.517Z,90.35
2018-09-01T14:38:49.011Z,90.54
2018-09-01T14:41:17.721Z,89.67
2018-09-01T14:43:46.435Z,91.05
2018-09-01T14:46:15.637Z,90.74
2018-09-01T14:48:44.310Z,91.75
2018-09-01T14:51:12.984Z,91.62
2018-09-01T14:53:42.636Z,93.06
2018-09-01T14:56:11.630Z,93.34
2018-09-01T14:58:40.294Z,93.79
2018-09-01T15:01:08.953Z,93.69
2018-09-01T15:03:38.049Z,94.92
2018-09-01T15:06:06.795Z,95.44
2018-09-01T15:08:35.481Z,94.01
2018-09-01T15:11:04.236Z,93.55
2018-09-01T15:13:32.912Z,94.40
2018-09-01T15:16:01.601Z,94.78
2018-09-01T15:18:30.283Z,94.81
2018-09-01T15:20:58.963Z,93.75
2018-09-01T15:23:27.655Z,92.63
2018-09-01T15:25:56.338Z,92.00
2018-09-01T15:28:25.080Z,92.73
2018-09-01T15:30:53.732Z,91.76
2018-09-01T15:33:22.565Z,92.29
2018-09-01T15:35:51.374Z,91.31
2018-09-01T15:38:20.100Z,91.87
2018-09-01T15:40:49.547Z,92.14
2018-09-01T15:43:18.254Z,91.74
2018-09-01T15:45:46.954Z,91.71
2018-09-01T15:48:15.657Z,90.95
2018-09-01T15:50:44.438Z,88.49
2018-09-01T15:53:13.114Z,89.24
2018-09-01T15:55:41.823Z,89.53
2018-09-01T15:58:10.542Z,89.18
2018-09-01T16:00:39.274Z,89.97
2018-09-01T16:03:08.128Z,90.92
2018-09-01T16:05:36.862Z,91.43
2018-09-01T16:08:06.041Z,92.06
2018-09-01T16:10:34.653Z,92.00
2018-09-01T16:13:03.325Z,92.44
2018-09-01T16:15:32.029Z,92.55
2018-09-01T16:18:00.801Z,92.46
2018-09-01T16:20:30.125Z,92.20
2018-09-01T16:22:58.877Z,92.32
2018-09-01T16:25:27.649Z,92.59
2018-09-01T16:27:56.371Z,93.04
2018-09-01T16:30:25.154Z,93.11
2018-09-01T16:32:53.878Z,93.54
2018-09-01T16:35:22.622Z,92.78
2018-09-01T16:37:51.410Z,91.64
2018-09-01T16:40:20.224Z,91.63
2018-09-01T16:42:48.871Z,92.72
2018-09-01T16:45:17.539Z,92.03
2018-09-01T16:47:46.263Z,92.10
2018-09-01T16:50:14.980Z,91.65
2018-09-01T16:52:43.673Z,91.67
2018-09-01T16:55:12.411Z,90.89
2018-09-01T16:57:41.083Z,91.60
2018-09-01T17:00:09.860Z,91.71
2018-09-01T17:02:38.541Z,92.63
2018-09-01T17:05:07.258Z,93.28
2018-09-01T17:07:36.120Z,93.59
2018-09-01T17:10:04.951Z,93.61
2018-09-01T17:12:33.746Z,94.28
2018-09-01T17:15:02.523Z,94.77
2018-09-01T17:17:31.189Z,94.70
2018-09-01T17:19:59.891Z,94.55
2018-09-01T17:22:28.523Z,94.83
2018-09-01T17:24:57.203Z,94.07
2018-09-01T17:27:25.945Z,93.11
2018-09-01T17:29:54.646Z,93.39
2018-09-01T17:32:23.310Z,94.31
2018-09-01T17:34:52.156Z,94.21
2018-09-01T17:37:20.836Z,94.29
2018-09-01T17:39:49.534Z,95.20
2018-09-01T17:42:18.409Z,95.72
2018-09-01T17:44:53.727Z,96.04
2018-09-01T17:47:22.500Z,96.84
2018-09-01T17:49:51.194Z,97.11
2018-09-01T17:52:19.983Z,97.30
2018-09-01T17:54:48.918Z,97.43
2018-09-01T17:57:17.742Z,97.30
2018-09-01T17:59:46.511Z,97.00
2018-09-01T18:02:15.478Z,97.13
2018-09-01T18:04:44.164Z,96.79
2018-09-01T18:07:12.867Z,97.51
2018-09-01T18:09:41.563Z,96.74
2018-09-01T18:12:10.676Z,96.74
2018-09-01T18:14:39.443Z,96.39
2018-09-01T18:17:08.579Z,96.77
2018-09-01T18:19:37.294Z,97.70
2018-09-01T18:22:06.057Z,97.69
2018-09-01T18:24:34.826Z,98.16
2018-09-01T18:27:04.195Z,97.93
2018-09-01T18:29:32.885Z,98.39
2018-09-01T18:32:01.571Z,98.71
2018-09-01T18:34:30.276Z,98.91
2018-09-01T18:36:59.002Z,98.43
2018-09-01T18:39:28.418Z,98.61
2018-09-01T18:41:57.554Z,98.95
2018-09-01T18:44:26.323Z,98.54
2018-09-01T18:46:55.209Z,98.52
2018-09-01T18:49:24.304Z,98.39
2018-09-01T18:51:52.992Z,98.82
2018-09-01T18:54:21.726Z,98.18
2018-09-01T18:56:50.783Z,98.06
2018-09-01T18:59:19.586Z,97.87
2018-09-01T19:01:49.046Z,98.26
2018-09-01T19:04:17.880Z,97.57
2018-09-01T19:06:46.574Z,97.21
2018-09-01T19:09:15.283Z,96.32
2018-09-01T19:11:44.112Z,96.67
2018-09-01T19:14:12.887Z,97.00
2018-09-01T19:16:42.015Z,97.03
2018-09-01T19:19:10.814Z,97.81
2018-09-01T19:21:39.506Z,96.31
2018-09-01T19:24:08.354Z,95.42
2018-09-01T19:26:37.035Z,95.72
2018-09-01T19:29:05.712Z,95.27
2018-09-01T19:31:34.460Z,95.26
2018-09-01T19:34:03.242Z,94.34
2018-09-01T19:36:31.915Z,94.61
2018-09-01T19:39:00.605Z,94.54
2018-09-01T19:41:29.276Z,94.15
2018-09-01T19:43:58.306Z,93.58
2018-09-01T19:46:28.238Z,94.19
2018-09-01T19:48:57.042Z,93.64
2018-09-01T19:51:27.776Z,93.46
2018-09-01T19:53:56.627Z,94.17
2018-09-01T19:56:26.002Z,94.44
2018-09-01T19:58:55.018Z,94.44
2018-09-01T20:01:24.078Z,94.14
2018-09-01T20:03:52.965Z,94.40
2018-09-01T20:06:26.828Z,95.67
2018-09-01T20:08:55.637Z,95.03
2018-09-01T20:11:24.550Z,95.37
2018-09-01T20:13:53.458Z,95.56
2018-09-01T20:16:22.327Z,96.00
2018-09-01T20:18:51.313Z,95.65
2018-09-01T20:21:27.394Z,94.34
2018-09-01T20:23:56.358Z,94.55
2018-09-01T20:26:25.218Z,95.67
2018-09-01T20:28:53.927Z,95.23
2018-09-01T20:31:22.716Z,94.57
2018-09-01T20:33:51.453Z,94.58
2018-09-01T20:36:22.243Z,93.83
2018-09-01T20:38:50.986Z,94.15
2018-09-01T20:41:19.845Z,94.21
2018-09-01T20:43:48.522Z,94.62
2018-09-01T20:46:17.478Z,95.00
2018-09-01T20:48:46.212Z,95.36
2018-09-01T20:51:14.935Z,94.98
2018-09-01T20:53:43.648Z,95.46
2018-09-01T20:56:14.545Z,95.50
2018-09-01T20:58:43.958Z,95.30
2018-09-01T21:01:12.695Z,96.18
2018-09-01T21:03:46.588Z,95.89
2018-09-01T21:06:15.405Z,95.77
2018-09-01T21:08:44.139Z,95.72
2018-09-01T21:11:13.450Z,96.74
2018-09-01T21:13:45.278Z,95.78
2018-09-01T21:16:14.124Z,96.41
2018-09-01T21:18:42.768Z,95.44
2018-09-01T21:21:11.481Z,95.62
2018-09-01T21:23:41.323Z,95.24
2018-09-01T21:26:10.054Z,94.69
2018-09-01T21:28:39.168Z,94.31
2018-09-01T21:31:08.843Z,94.96
2018-09-01T21:33:37.958Z,95.59
2018-09-01T21:36:08.259Z,95.70
2018-09-01T21:38:37.022Z,95.94
2018-09-01T21:41:06.809Z,95.79
2018-09-01T21:43:35.658Z,96.23
2018-09-01T21:46:04.365Z,95.95
2018-09-01T21:48:33.057Z,95.56
2018-09-01T21:51:01.809Z,94.76
2018-09-01T21:53:30.554Z,95.09
2018-09-01T21:55:59.338Z,95.20
2018-09-01T21:58:28.068Z,94.51
2018-09-01T22:01:01.924Z,93.46
2018-09-01T22:03:30.803Z,93.41
2018-09-01T22:05:59.666Z,92.95
2018-09-01T22:08:28.622Z,93.31
2018-09-01T22:10:57.791Z,93.62
2018-09-01T22:13:26.573Z,93.66
2018-09-01T22:15:55.541Z,93.86
2018-09-01T22:18:24.660Z,94.73
2018-09-01T22:20:53.528Z,94.04
2018-09-01T22:23:22.340Z,92.86
2018-09-01T22:25:51.121Z,92.95
2018-09-01T22:28:19.850Z,93.09
2018-09-01T22:30:48.978Z,92.97
2018-09-01T22:33:17.938Z,92.55
2018-09-01T22:35:46.938Z,92.80
2018-09-01T22:38:15.792Z,92.36
2018-09-01T22:40:44.614Z,92.87
2018-09-01T22:43:13.442Z,93.71
2018-09-01T22:45:42.438Z,94.06
2018-09-01T22:48:11.341Z,94.39
2018-09-01T22:50:40.234Z,93.58
2018-09-01T22:53:08.959Z,92.90
2018-09-01T22:55:37.708Z,93.50
2018-09-01T22:58:06.512Z,93.19
2018-09-01T23:00:35.323Z,93.31
2018-09-01T23:03:04.157Z,94.26
2018-09-01T23:05:32.962Z,93.22
2018-09-01T23:08:01.771Z,93.18
2018-09-01T23:10:30.618Z,93.78
2018-09-01T23:13:00.120Z,93.47
2018-09-01T23:15:28.953Z,92.92
2018-09-01T23:17:57.890Z,93.12
2018-09-01T23:20:26.856Z,93.46
2018-09-01T23:22:55.589Z,93.26
2018-09-01T23:25:24.375Z,93.32
2018-09-01T23:27:53.122Z,93.11
2018-09-01T23:30:21.915Z,93.03
2018-09-01T23:32:50.686Z,92.49
2018-09-01T23:35:19.488Z,93.21
2018-09-01T23:37:48.330Z,92.79
2018-09-01T23:40:17.104Z,92.15
2018-09-01T23:42:45.946Z,92.75
2018-09-01T23:45:14.694Z,92.26
2018-09-01T23:47:43.403Z,93.13
2018-09-01T23:50:12.172Z,93.59
2018-09-01T23:52:40.931Z,93.12
2018-09-01T23:55:09.837Z,92.55
2018-09-01T23:57:38.523Z,92.17
